Terminal Aerodrome Forecast
Issued by NWS Cleveland, OH

Home | Current Version | Previous Version | Text Only | Print | Product List | Glossary Off
Versions: 1 2 3 4 5 6 7 8 9 10 11 12 13 14 15 16 17 18 19 20 21 22 23 24 25 26 27 28 29 30 31

000
FTUS41 KCLE 091509 AAB
TAFCLE
TAF AMD
KCLE 091509Z 0915/1018 18012KT P6SM BKN100
     FM092100 24010KT P6SM -SN OVC040
     FM092300 27012KT 3SM -SHSN OVC025
     FM100500 28012G20KT 4SM -SHSN BKN015
      TEMPO 1005/1009 2SM -SN OVC010
     FM101000 27012G20KT P6SM VCSH OVC025
     FM101300 24012G20KT P6SM BKN050=

USA.gov is the U.S. government's official web portal to all federal, state and local government web resources and services.